createdAt,value
2018-06-13T00:01:10.379Z,12.10
2018-06-13T00:03:39.060Z,13.00
2018-06-13T00:06:08.493Z,9.23
2018-06-13T00:08:37.903Z,8.20
2018-06-13T00:11:06.587Z,7.07
2018-06-13T00:13:35.485Z,7.63
2018-06-13T00:16:04.125Z,7.77
2018-06-13T00:18:32.783Z,6.30
2018-06-13T00:21:01.460Z,6.60
2018-06-13T00:23:30.174Z,6.73
2018-06-13T00:25:58.773Z,7.00
2018-06-13T00:28:27.527Z,6.50
2018-06-13T00:30:56.183Z,7.10
2018-06-13T00:33:24.813Z,6.07
2018-06-13T00:35:53.444Z,6.93
2018-06-13T00:38:22.909Z,6.03
2018-06-13T00:40:51.537Z,7.40
2018-06-13T00:43:20.161Z,10.60
2018-06-13T00:45:48.806Z,13.03
2018-06-13T00:48:17.442Z,15.03
2018-06-13T00:50:46.072Z,15.70
2018-06-13T00:53:16.464Z,13.90
2018-06-13T00:55:55.940Z,13.80
2018-06-13T00:58:24.549Z,12.90
2018-06-13T01:00:53.174Z,13.00
2018-06-13T01:03:21.826Z,11.40
2018-06-13T01:05:50.753Z,13.77
2018-06-13T01:08:19.979Z,12.30
2018-06-13T01:10:48.950Z,13.07
2018-06-13T01:13:19.236Z,13.13
2018-06-13T01:15:47.873Z,12.57
2018-06-13T01:18:16.587Z,12.37
2018-06-13T01:20:45.268Z,12.07
2018-06-13T01:23:13.965Z,11.47
2018-06-13T01:25:42.646Z,12.97
2018-06-13T01:28:11.249Z,11.17
2018-06-13T01:30:39.851Z,11.90
2018-06-13T01:33:08.503Z,13.97
2018-06-13T01:35:37.146Z,13.67
2018-06-13T01:38:05.983Z,14.07
2018-06-13T01:40:35.944Z,14.57
2018-06-13T01:43:04.943Z,13.13
2018-06-13T01:45:33.806Z,10.90
2018-06-13T01:48:02.438Z,10.60
2018-06-13T01:50:31.104Z,10.23
2018-06-13T01:52:59.737Z,8.90
2018-06-13T01:55:28.351Z,8.90
2018-06-13T01:57:56.990Z,10.63
2018-06-13T02:00:25.647Z,14.63
2018-06-13T02:02:54.241Z,14.27
2018-06-13T02:05:22.878Z,15.57
2018-06-13T02:07:52.966Z,13.70
2018-06-13T02:10:22.293Z,16.43
2018-06-13T02:12:50.982Z,16.40
2018-06-13T02:15:19.689Z,15.57
2018-06-13T02:17:48.359Z,15.83
2018-06-13T02:20:16.985Z,16.20
2018-06-13T02:22:46.370Z,12.43
2018-06-13T02:25:18.026Z,10.80
2018-06-13T02:27:46.860Z,11.10
2018-06-13T02:30:15.732Z,10.27
2018-06-13T02:32:44.691Z,9.10
2018-06-13T02:35:13.504Z,10.70
2018-06-13T02:37:42.083Z,9.43
2018-06-13T02:40:10.754Z,9.43
2018-06-13T02:42:39.373Z,9.60
2018-06-13T02:45:08.023Z,8.70
2018-06-13T02:47:36.658Z,8.33
2018-06-13T02:50:05.380Z,8.00
2018-06-13T02:52:34.038Z,8.40
2018-06-13T02:55:02.655Z,15.40
2018-06-13T02:57:31.298Z,15.00
2018-06-13T02:59:59.938Z,15.50
2018-06-13T03:02:28.602Z,15.57
2018-06-13T03:04:57.249Z,14.77
2018-06-13T03:07:25.851Z,13.30
2018-06-13T03:09:54.470Z,12.20
2018-06-13T03:12:23.149Z,12.20
2018-06-13T03:14:51.755Z,12.00
2018-06-13T03:17:20.358Z,14.47
2018-06-13T03:19:49.016Z,16.20
2018-06-13T03:22:17.622Z,18.40
2018-06-13T03:24:46.228Z,18.20
2018-06-13T03:27:14.894Z,18.00
2018-06-13T03:29:43.554Z,20.63
2018-06-13T03:32:12.169Z,17.70
2018-06-13T03:34:41.410Z,15.93
2018-06-13T03:37:09.975Z,17.17
2018-06-13T03:39:38.637Z,19.13
2018-06-13T03:42:07.293Z,19.70
2018-06-13T03:44:35.909Z,19.23
2018-06-13T03:47:04.522Z,16.87
2018-06-13T03:49:33.093Z,18.73
2018-06-13T03:52:01.697Z,16.60
2018-06-13T03:54:30.377Z,17.70
2018-06-13T03:56:59.007Z,19.20
2018-06-13T03:59:27.658Z,18.17
2018-06-13T04:01:56.344Z,17.70
2018-06-13T04:04:24.956Z,20.37
2018-06-13T04:06:53.754Z,20.67
2018-06-13T04:09:22.417Z,20.10
2018-06-13T04:11:51.070Z,20.47
2018-06-13T04:14:19.815Z,23.20
2018-06-13T04:16:49.081Z,24.47
2018-06-13T04:19:17.677Z,26.33
2018-06-13T04:21:46.834Z,27.47
2018-06-13T04:24:15.462Z,26.93
2018-06-13T04:26:44.123Z,26.57
2018-06-13T04:29:12.808Z,27.37
2018-06-13T04:31:42.961Z,28.73
2018-06-13T04:34:11.586Z,26.87
2018-06-13T04:36:40.250Z,29.47
2018-06-13T04:39:09.609Z,28.60
2018-06-13T04:41:38.238Z,30.20
2018-06-13T04:44:06.873Z,27.93
2018-06-13T04:46:35.519Z,29.97
2018-06-13T04:49:04.167Z,27.93
2018-06-13T04:51:32.775Z,29.43
2018-06-13T04:54:01.463Z,28.67
2018-06-13T04:56:30.161Z,29.77
2018-06-13T04:58:58.830Z,28.07
2018-06-13T05:01:27.451Z,27.33
2018-06-13T05:03:56.047Z,28.10
2018-06-13T05:06:24.703Z,29.50
2018-06-13T05:08:53.390Z,27.30
2018-06-13T05:11:22.065Z,28.20
2018-06-13T05:13:50.762Z,29.20
2018-06-13T05:16:19.395Z,28.17
2018-06-13T05:18:48.024Z,28.03
2018-06-13T05:21:16.626Z,29.50
2018-06-13T05:23:45.261Z,29.40
2018-06-13T05:26:13.899Z,28.20
2018-06-13T05:28:42.514Z,28.50
2018-06-13T05:31:11.155Z,27.50
2018-06-13T05:33:39.742Z,27.27
2018-06-13T05:36:08.423Z,27.43
2018-06-13T05:38:37.062Z,27.90
2018-06-13T05:41:05.686Z,27.47
2018-06-13T05:43:34.298Z,27.87
2018-06-13T05:46:02.960Z,28.10
2018-06-13T05:48:31.997Z,26.67
2018-06-13T05:51:08.957Z,27.60
2018-06-13T05:53:45.481Z,26.13
2018-06-13T05:56:25.531Z,28.73
2018-06-13T05:58:56.033Z,27.90
2018-06-13T06:01:26.426Z,27.40
2018-06-13T06:03:58.014Z,27.63
2018-06-13T06:06:26.675Z,27.60
2018-06-13T06:08:55.493Z,28.77
2018-06-13T06:11:24.169Z,29.73
2018-06-13T06:13:52.830Z,29.10
2018-06-13T06:16:21.491Z,26.97
2018-06-13T06:18:50.305Z,30.13
2018-06-13T06:21:19.041Z,28.90
2018-06-13T06:23:47.678Z,28.93
2018-06-13T06:26:16.265Z,30.43
2018-06-13T06:28:44.942Z,29.50
2018-06-13T06:31:13.702Z,28.90
2018-06-13T06:33:42.327Z,28.53
2018-06-13T06:36:11.698Z,31.20
2018-06-13T06:38:49.595Z,29.43
2018-06-13T06:41:30.622Z,30.93
2018-06-13T06:43:59.745Z,33.87
2018-06-13T06:46:30.915Z,33.20
2018-06-13T06:49:03.643Z,32.17
2018-06-13T08:13:36.728Z,23.50
2018-06-13T08:16:05.803Z,21.93
2018-06-13T08:18:34.612Z,22.20
2018-06-13T08:21:03.306Z,23.80
2018-06-13T08:23:32.001Z,25.20
2018-06-13T08:26:00.700Z,24.47
2018-06-13T08:28:29.296Z,25.20
2018-06-13T08:30:58.115Z,29.20
2018-06-13T08:33:27.136Z,26.70
2018-06-13T08:35:55.840Z,26.10
2018-06-13T08:38:24.951Z,27.40
2018-06-13T08:40:56.645Z,22.67
2018-06-13T08:43:25.401Z,22.03
2018-06-13T08:45:54.054Z,21.93
2018-06-13T08:48:22.685Z,20.43
2018-06-13T08:50:51.980Z,19.37
2018-06-13T08:53:20.664Z,19.03
2018-06-13T08:55:49.323Z,17.73
2018-06-13T08:58:17.979Z,20.40
2018-06-13T09:00:46.616Z,19.80
2018-06-13T09:03:15.225Z,20.60
2018-06-13T09:05:43.901Z,20.40
2018-06-13T09:08:12.527Z,17.07
2018-06-13T09:10:41.669Z,18.50
2018-06-13T09:13:10.315Z,16.17
2018-06-13T09:15:38.994Z,15.67
2018-06-13T09:18:07.653Z,16.50
2018-06-13T09:20:36.354Z,16.57
2018-06-13T09:23:05.064Z,17.60
2018-06-13T09:25:33.745Z,18.67
2018-06-13T09:28:02.398Z,18.63
2018-06-13T09:30:31.103Z,20.43
2018-06-13T09:32:59.714Z,22.03
2018-06-13T09:48:20.493Z,32.27
2018-06-13T09:50:49.094Z,36.33
2018-06-13T09:53:17.757Z,34.83
2018-06-13T09:55:46.397Z,36.60
2018-06-13T09:58:15.277Z,33.87
2018-06-13T10:00:48.908Z,33.03
2018-06-13T10:03:17.511Z,33.43
2018-06-13T10:05:46.111Z,32.00
2018-06-13T10:08:15.637Z,32.00
2018-06-13T10:10:44.230Z,29.97
2018-06-13T10:13:12.898Z,28.33
2018-06-13T10:15:41.585Z,27.67
2018-06-13T10:18:10.219Z,28.20
2018-06-13T10:20:38.920Z,26.13
2018-06-13T10:23:07.516Z,23.50
2018-06-13T10:25:36.135Z,21.87
2018-06-13T10:28:05.762Z,22.27
2018-06-13T10:30:34.366Z,21.80
2018-06-13T10:33:03.005Z,23.67
2018-06-13T10:35:31.707Z,24.53
2018-06-13T10:38:00.974Z,24.20
2018-06-13T10:40:29.580Z,23.10
2018-06-13T10:42:58.209Z,23.67
2018-06-13T10:45:26.818Z,21.40
2018-06-13T10:47:55.431Z,21.67
2018-06-13T10:50:24.046Z,20.33
2018-06-13T10:52:52.714Z,22.00
2018-06-13T10:55:21.920Z,20.37
2018-06-13T10:57:50.607Z,22.23
2018-06-13T11:00:19.345Z,20.67
2018-06-13T11:02:48.043Z,20.10
2018-06-13T11:05:16.795Z,21.70
2018-06-13T11:07:45.484Z,21.13
2018-06-13T11:10:14.160Z,21.20
2018-06-13T11:12:42.786Z,19.97
2018-06-13T11:15:11.437Z,21.43
2018-06-13T11:17:40.089Z,18.73
2018-06-13T11:20:08.808Z,20.03
2018-06-13T11:22:37.460Z,19.67
2018-06-13T11:25:06.070Z,19.60
2018-06-13T11:27:34.748Z,18.70
2018-06-13T11:30:04.089Z,21.10
2018-06-13T11:32:32.783Z,21.67
2018-06-13T11:35:05.605Z,19.50
2018-06-13T11:37:34.824Z,21.47
2018-06-13T11:40:03.562Z,22.50
2018-06-13T11:42:33.259Z,19.83
2018-06-13T11:45:01.936Z,19.00
2018-06-13T11:47:30.573Z,19.60
2018-06-13T11:49:59.317Z,19.47
2018-06-13T11:52:28.005Z,19.40
2018-06-13T11:54:56.709Z,19.87
2018-06-13T11:57:25.338Z,21.10
2018-06-13T11:59:53.978Z,19.80
2018-06-13T12:02:22.594Z,18.60
2018-06-13T12:04:51.359Z,18.80
2018-06-13T12:07:19.998Z,19.20
2018-06-13T12:09:48.654Z,18.90
2018-06-13T12:12:17.312Z,19.10
2018-06-13T12:14:45.990Z,18.60
2018-06-13T12:17:14.657Z,17.37
2018-06-13T12:19:43.298Z,17.03
2018-06-13T12:22:11.930Z,17.20
2018-06-13T12:24:40.552Z,17.93
2018-06-13T12:27:09.266Z,17.70
2018-06-13T12:29:37.858Z,17.37
2018-06-13T12:32:06.568Z,17.50
2018-06-13T12:34:35.252Z,15.70
2018-06-13T12:37:03.928Z,17.73
2018-06-13T12:39:32.653Z,17.93
2018-06-13T12:42:01.315Z,16.77
2018-06-13T12:44:29.996Z,15.90
2018-06-13T12:46:58.678Z,16.93
2018-06-13T12:49:27.922Z,16.60
2018-06-13T12:51:56.743Z,18.57
2018-06-13T12:54:25.544Z,17.50
2018-06-13T12:56:54.487Z,16.57
2018-06-13T12:59:23.393Z,16.27
2018-06-13T13:01:52.139Z,17.63
2018-06-13T13:04:20.839Z,16.97
2018-06-13T13:06:49.558Z,17.90
2018-06-13T13:09:18.286Z,17.40
2018-06-13T13:11:47.022Z,17.47
2018-06-13T13:14:15.785Z,17.73
2018-06-13T13:16:44.484Z,16.67
2018-06-13T13:19:13.205Z,15.10
2018-06-13T13:21:41.995Z,16.20
2018-06-13T13:24:10.807Z,15.13
2018-06-13T13:26:39.654Z,16.10
2018-06-13T13:29:08.423Z,15.40
2018-06-13T13:31:37.215Z,15.17
2018-06-13T13:34:05.979Z,15.07
2018-06-13T13:36:34.746Z,15.50
2018-06-13T13:39:05.092Z,15.53
2018-06-13T13:41:33.809Z,16.83
2018-06-13T13:44:02.599Z,16.17
2018-06-13T13:46:31.428Z,15.83
2018-06-13T13:49:00.203Z,16.30
2018-06-13T13:51:28.953Z,16.23
2018-06-13T13:53:57.683Z,16.00
2018-06-13T13:56:26.411Z,16.70
2018-06-13T13:58:55.318Z,15.33
2018-06-13T14:01:24.398Z,15.30
2018-06-13T14:03:53.092Z,15.83
2018-06-13T14:06:21.832Z,16.17
2018-06-13T14:08:50.762Z,14.33
2018-06-13T14:11:19.559Z,14.33
2018-06-13T14:13:51.337Z,14.57
2018-06-13T14:16:20.054Z,14.80
2018-06-13T14:18:48.870Z,15.43
2018-06-13T14:21:17.725Z,15.87
2018-06-13T14:23:46.422Z,16.53
2018-06-13T14:26:15.236Z,16.60
2018-06-13T14:28:43.954Z,17.83
2018-06-13T14:31:13.975Z,20.80
2018-06-13T14:33:42.667Z,19.83
2018-06-13T14:36:12.390Z,19.63
2018-06-13T14:38:41.229Z,20.37
2018-06-13T14:41:09.985Z,21.20
2018-06-13T14:43:38.759Z,19.70
2018-06-13T14:46:07.532Z,19.00
2018-06-13T14:48:36.226Z,19.97
2018-06-13T14:51:05.592Z,18.30
2018-06-13T14:53:34.388Z,19.77
2018-06-13T14:56:08.133Z,20.00
2018-06-13T14:58:36.906Z,18.97
2018-06-13T15:01:05.645Z,20.10
2018-06-13T15:03:34.328Z,18.13
2018-06-13T15:06:03.187Z,20.93
2018-06-13T15:08:31.962Z,20.33
2018-06-13T15:11:00.696Z,21.23
2018-06-13T15:13:29.493Z,18.60
2018-06-13T15:15:58.235Z,19.17
2018-06-13T15:18:26.916Z,19.93
2018-06-13T15:20:55.794Z,20.00
2018-06-13T15:23:24.524Z,20.77
2018-06-13T15:25:53.175Z,19.20
2018-06-13T15:28:21.834Z,17.33
2018-06-13T15:30:50.617Z,17.23
2018-06-13T15:33:19.280Z,16.60
2018-06-13T15:35:50.074Z,16.27
2018-06-13T15:38:18.741Z,16.00
2018-06-13T15:40:47.385Z,15.53
2018-06-13T15:43:16.114Z,14.53
2018-06-13T15:45:44.873Z,13.80
2018-06-13T15:48:13.585Z,15.40
2018-06-13T15:50:42.311Z,14.27
2018-06-13T15:53:11.082Z,13.47
2018-06-13T15:55:39.770Z,13.50
2018-06-13T15:58:08.656Z,13.80
2018-06-13T16:00:37.319Z,13.67
2018-06-13T16:03:06.820Z,13.10
2018-06-13T16:05:35.859Z,13.07
2018-06-13T16:08:04.586Z,13.90
2018-06-13T16:10:33.241Z,12.30
2018-06-13T16:13:01.995Z,12.90
2018-06-13T16:15:30.668Z,12.00
2018-06-13T16:17:59.355Z,12.17
2018-06-13T16:20:28.115Z,13.40
2018-06-13T16:22:57.354Z,12.17
2018-06-13T16:25:26.083Z,12.73
2018-06-13T16:27:54.773Z,10.77
2018-06-13T16:30:23.552Z,12.57
2018-06-13T16:32:52.258Z,12.70
2018-06-13T16:35:21.059Z,10.70
2018-06-13T16:37:49.713Z,11.50
2018-06-13T16:40:18.337Z,11.33
2018-06-13T16:42:46.999Z,11.27
2018-06-13T16:45:15.717Z,11.67
2018-06-13T16:47:44.435Z,11.67
2018-06-13T16:50:24.066Z,10.37
2018-06-13T16:53:03.479Z,11.00
2018-06-13T16:55:32.097Z,11.10
2018-06-13T16:58:00.726Z,11.10
2018-06-13T17:00:29.446Z,11.40
2018-06-13T17:02:58.133Z,11.70
2018-06-13T17:05:26.850Z,10.33
2018-06-13T17:07:55.618Z,11.20
2018-06-13T17:10:24.355Z,10.87
2018-06-13T17:12:52.974Z,10.47
2018-06-13T17:15:21.894Z,10.90
2018-06-13T17:17:50.683Z,11.00
2018-06-13T17:20:19.527Z,9.90
2018-06-13T17:22:48.215Z,10.13
2018-06-13T17:35:10.416Z,8.40
2018-06-13T17:37:39.082Z,9.40
2018-06-13T17:40:07.861Z,9.77
2018-06-13T17:42:36.683Z,9.27
2018-06-13T17:45:05.899Z,8.90
2018-06-13T17:47:34.696Z,9.57
2018-06-13T17:50:03.431Z,8.50
2018-06-13T17:52:32.105Z,9.60
2018-06-13T17:55:00.859Z,8.30
2018-06-13T17:57:29.634Z,8.23
2018-06-13T17:59:58.371Z,8.43
2018-06-13T18:02:27.083Z,9.70
2018-06-13T18:04:55.820Z,8.80
2018-06-13T18:07:24.510Z,8.20
2018-06-13T18:09:53.212Z,8.23
2018-06-13T18:12:21.958Z,7.93
2018-06-13T18:14:50.646Z,8.20
2018-06-13T18:17:19.391Z,7.97
2018-06-13T18:19:48.095Z,7.00
2018-06-13T18:22:16.789Z,7.03
2018-06-13T18:24:45.502Z,8.23
2018-06-13T18:27:14.253Z,7.27
2018-06-13T18:29:42.933Z,7.23
2018-06-13T18:32:11.675Z,7.13
2018-06-13T18:34:40.396Z,8.13
2018-06-13T18:37:09.095Z,7.30
2018-06-13T18:39:37.777Z,7.70
2018-06-13T18:42:06.607Z,8.87
2018-06-13T18:44:35.302Z,8.43
2018-06-13T18:47:04.023Z,8.53
2018-06-13T18:49:32.707Z,11.30
2018-06-13T18:52:01.478Z,12.30
2018-06-13T18:54:30.319Z,12.03
2018-06-13T18:56:59.024Z,14.60
2018-06-13T18:59:27.673Z,13.83
2018-06-13T19:01:56.396Z,13.70
2018-06-13T19:04:25.063Z,14.83
2018-06-13T19:06:53.696Z,13.60
2018-06-13T19:09:22.377Z,13.87
2018-06-13T19:11:51.044Z,15.60
2018-06-13T19:14:19.707Z,15.13
2018-06-13T19:16:48.934Z,15.27
2018-06-13T19:19:17.598Z,15.77
2018-06-13T19:21:46.258Z,16.97
2018-06-13T19:24:14.955Z,17.40
2018-06-13T19:26:44.211Z,15.80
2018-06-13T19:29:12.847Z,16.20
2018-06-13T19:31:41.565Z,17.23
2018-06-13T19:34:10.271Z,17.23
2018-06-13T19:36:38.893Z,17.10
2018-06-13T19:39:09.014Z,16.53
2018-06-13T19:41:37.748Z,18.37
2018-06-13T19:44:06.455Z,17.83
2018-06-13T19:46:35.065Z,17.13
2018-06-13T19:49:03.745Z,16.33
2018-06-13T19:51:32.398Z,18.37
2018-06-13T19:54:06.282Z,17.87
2018-06-13T19:56:34.991Z,18.53
2018-06-13T19:59:03.657Z,19.30
2018-06-13T20:01:32.393Z,18.67
2018-06-13T20:04:06.171Z,18.40
2018-06-13T20:06:37.620Z,18.53
2018-06-13T20:09:08.164Z,19.40
2018-06-13T20:11:36.841Z,19.90
2018-06-13T20:14:10.609Z,17.30
2018-06-13T20:16:50.509Z,17.30
2018-06-13T20:19:24.740Z,16.57
2018-06-13T20:21:54.618Z,18.97
2018-06-13T20:24:23.303Z,18.80
2018-06-13T20:26:57.161Z,18.47
2018-06-13T20:29:31.036Z,18.03
2018-06-13T20:31:59.692Z,20.00
2018-06-13T20:34:28.481Z,19.00
2018-06-13T20:36:57.118Z,18.97
2018-06-13T20:39:25.819Z,18.90
2018-06-13T20:41:54.459Z,19.90
2018-06-13T20:44:23.099Z,18.17
2018-06-13T20:46:51.758Z,18.43
2018-06-13T20:49:20.386Z,19.60
2018-06-13T20:51:49.107Z,18.90
2018-06-13T20:54:17.854Z,18.00
2018-06-13T20:56:46.470Z,17.10
2018-06-13T20:59:15.134Z,16.70
2018-06-13T21:01:43.857Z,16.70
2018-06-13T21:04:12.526Z,17.30
2018-06-13T21:06:41.167Z,16.00
2018-06-13T21:09:10.547Z,15.70
2018-06-13T21:11:39.628Z,16.60
2018-06-13T21:14:08.325Z,16.57
2018-06-13T21:16:36.958Z,16.67
2018-06-13T21:19:05.628Z,15.70
2018-06-13T21:21:34.254Z,16.50
2018-06-13T21:24:03.024Z,16.30
2018-06-13T21:26:31.662Z,13.80
2018-06-13T21:29:00.272Z,14.60
2018-06-13T21:31:28.926Z,15.60
2018-06-13T21:33:57.584Z,14.77
2018-06-13T21:36:26.241Z,13.80
2018-06-13T21:38:54.958Z,14.00
2018-06-13T21:41:23.695Z,13.17
2018-06-13T21:43:52.346Z,14.87
2018-06-13T21:46:21.044Z,14.40
2018-06-13T21:48:49.740Z,15.40
2018-06-13T21:51:18.338Z,13.37
2018-06-13T21:53:47.056Z,14.00
2018-06-13T21:56:15.774Z,14.07
2018-06-13T21:58:44.439Z,13.40
2018-06-13T22:01:13.071Z,12.80
2018-06-13T22:03:41.735Z,12.57
2018-06-13T22:06:10.409Z,11.80
2018-06-13T22:08:39.059Z,12.80
2018-06-13T22:11:07.684Z,13.10
2018-06-13T22:13:36.363Z,12.00
2018-06-13T22:16:05.078Z,12.83
2018-06-13T22:18:33.720Z,12.73
2018-06-13T22:21:02.342Z,11.67
2018-06-13T22:23:31.007Z,11.27
2018-06-13T22:25:59.639Z,11.03
2018-06-13T22:28:28.278Z,11.20
2018-06-13T22:30:56.968Z,11.97
2018-06-13T22:33:25.601Z,11.90
2018-06-13T22:35:54.230Z,10.73
2018-06-13T22:38:22.938Z,12.30
2018-06-13T22:40:51.583Z,11.87
2018-06-13T22:43:20.200Z,12.47
2018-06-13T22:45:48.810Z,10.30
2018-06-13T22:48:17.465Z,11.37
2018-06-13T22:50:46.189Z,12.17
2018-06-13T22:53:14.878Z,11.53
2018-06-13T22:55:43.522Z,13.27
2018-06-13T22:58:12.223Z,12.13
2018-06-13T23:01:13.081Z,13.37
2018-06-13T23:03:43.796Z,13.70
2018-06-13T23:06:13.250Z,12.60
2018-06-13T23:08:41.861Z,12.77
2018-06-13T23:11:10.557Z,13.20
2018-06-13T23:13:41.277Z,12.50
2018-06-13T23:16:10.287Z,12.67
2018-06-13T23:18:43.508Z,12.93
2018-06-13T23:21:12.288Z,12.90
2018-06-13T23:23:40.884Z,13.37
2018-06-13T23:26:09.532Z,13.30
2018-06-13T23:28:38.135Z,14.70
2018-06-13T23:31:06.825Z,13.83
2018-06-13T23:33:38.896Z,13.03
2018-06-13T23:36:07.590Z,12.97
2018-06-13T23:38:36.242Z,13.70
2018-06-13T23:41:05.056Z,14.43
2018-06-13T23:43:33.650Z,13.70
2018-06-13T23:46:02.300Z,14.23
2018-06-13T23:48:34.366Z,14.10
2018-06-13T23:51:03.231Z,13.43
2018-06-13T23:53:32.058Z,14.70
2018-06-13T23:56:00.771Z,13.90
2018-06-13T23:58:29.439Z,13.67
